Time,TemperatureF,DewpointF,PressureIn,WindDirection,WindDirectionDegrees,WindSpeedMPH,WindSpeedGustMPH,Humidity,HourlyPrecipIn,Conditions,Clouds,dailyrainin,SoftwareType,DateUTC
2013-05-03 05:48:00,55.6,50.8,30.03,SE,135,0.0,0.0,84,0.00,CLR,CLR,0.00,WeatherDisplay:10.37,2013-05-03 09:48:00,
2013-05-03 05:52:00,55.6,50.8,30.04,SE,135,0.0,0.0,84,0.00,OVC,OVC,0.00,WeatherDisplay:10.37,2013-05-03 09:52:00,
2013-05-03 05:53:00,55.6,50.8,30.04,SE,135,0.0,0.0,84,0.00,OVC,OVC,0.00,WeatherDisplay:10.37,2013-05-03 09:53:00,
2013-05-03 05:54:00,55.6,50.8,30.04,SE,135,0.0,0.0,84,0.00,OVC,OVC,0.00,WeatherDisplay:10.37,2013-05-03 09:54:00,
2013-05-03 05:55:00,55.6,50.8,30.04,SE,135,0.0,0.0,84,0.00,OVC,OVC,0.00,WeatherDisplay:10.37,2013-05-03 09:55:00,
2013-05-03 06:00:00,55.6,50.8,30.04,SE,135,0.0,0.0,84,0.00,OVC,OVC,0.00,WeatherDisplay:10.37,2013-05-03 10:00:00,
2013-05-03 06:05:00,55.6,51.1,30.04,SE,135,0.0,0.0,85,0.00,OVC,OVC,0.00,WeatherDisplay:10.37,2013-05-03 10:05:00,
2013-05-03 06:10:00,55.9,51.8,30.04,SE,135,0.0,0.0,86,0.00,OVC,OVC,0.00,WeatherDisplay:10.37,2013-05-03 10:10:00,
2013-05-03 06:15:00,55.9,51.8,30.04,SE,135,1.2,1.2,86,0.00,OVC,OVC,0.00,WeatherDisplay:10.37,2013-05-03 10:15:00,
2013-05-03 06:20:00,56.5,52.3,30.04,SE,135,0.0,1.3,86,0.00,OVC,OVC,0.00,WeatherDisplay:10.37,2013-05-03 10:20:00,
2013-05-03 06:25:00,57.0,52.9,30.04,ESE,112,0.0,0.0,86,0.00,OVC,OVC,0.00,WeatherDisplay:10.37,2013-05-03 10:25:00,
2013-05-03 06:30:00,57.0,52.9,30.04,SE,135,0.0,0.2,86,0.00,OVC,OVC,0.00,WeatherDisplay:10.37,2013-05-03 10:30:00,
2013-05-03 06:35:00,57.0,52.9,30.04,SE,135,0.0,0.0,86,0.00,OVC,OVC,0.00,WeatherDisplay:10.37,2013-05-03 10:35:00,
2013-05-03 06:40:00,57.6,52.8,30.04,SE,135,1.2,1.2,84,0.00,OVC,OVC,0.00,WeatherDisplay:10.37,2013-05-03 10:40:00,
2013-05-03 06:45:00,57.7,52.6,30.04,SE,135,0.0,0.0,83,0.00,OVC,OVC,0.00,WeatherDisplay:10.37,2013-05-03 10:45:00,
2013-05-03 06:50:00,57.7,52.6,30.04,SE,135,0.0,0.0,83,0.00,OVC,OVC,0.00,WeatherDisplay:10.37,2013-05-03 10:50:00,
2013-05-03 06:55:00,58.1,52.3,30.04,SE,135,1.2,1.3,81,0.00,OVC,OVC,0.00,WeatherDisplay:10.37,2013-05-03 10:55:00,
2013-05-03 07:00:00,58.1,52.3,30.04,SE,135,0.0,0.0,81,0.00,OVC,OVC,0.00,WeatherDisplay:10.37,2013-05-03 11:00:00,
2013-05-03 07:05:00,58.5,52.6,30.04,SE,135,2.3,2.3,81,0.00,OVC,OVC,0.00,WeatherDisplay:10.37,2013-05-03 11:05:00,
2013-05-03 07:10:00,58.8,52.3,30.04,SE,135,0.0,1.9,79,0.00,OVC,OVC,0.00,WeatherDisplay:10.37,2013-05-03 11:10:00,
2013-05-03 07:15:00,58.8,52.3,30.04,SE,135,2.3,2.3,79,0.00,OVC,OVC,0.00,WeatherDisplay:10.37,2013-05-03 11:15:00,
2013-05-03 07:20:00,59.2,52.7,30.04,SE,135,1.2,1.6,79,0.00,OVC,OVC,0.00,WeatherDisplay:10.37,2013-05-03 11:20:00,
2013-05-03 07:25:00,59.5,53.0,30.04,SE,135,0.0,0.0,79,0.00,OVC,OVC,0.00,WeatherDisplay:10.37,2013-05-03 11:25:00,
2013-05-03 07:30:00,59.5,53.0,30.04,SE,135,0.0,0.0,79,0.00,OVC,OVC,0.00,WeatherDisplay:10.37,2013-05-03 11:30:00,
2013-05-03 07:35:00,59.5,51.6,30.05,SE,135,0.0,0.0,75,0.00,OVC,OVC,0.00,WeatherDisplay:10.37,2013-05-03 11:35:00,
2013-05-03 07:40:00,59.7,51.8,30.05,SE,135,0.0,0.5,75,0.00,OVC,OVC,0.00,WeatherDisplay:10.37,2013-05-03 11:40:00,
2013-05-03 07:45:00,60.4,52.5,30.05,SE,135,1.2,1.4,75,0.00,OVC,OVC,0.00,WeatherDisplay:10.37,2013-05-03 11:45:00,
2013-05-03 07:50:00,60.6,52.6,30.05,SE,135,0.0,1.5,75,0.00,OVC,OVC,0.00,WeatherDisplay:10.37,2013-05-03 11:50:00,
2013-05-03 07:55:00,60.6,52.6,30.05,SE,135,0.0,0.0,75,0.00,OVC,OVC,0.00,WeatherDisplay:10.37,2013-05-03 11:55:00,
2013-05-03 08:00:00,61.0,53.0,30.05,SE,135,0.0,0.0,75,0.00,OVC,OVC,0.00,WeatherDisplay:10.37,2013-05-03 12:00:00,
2013-05-03 08:05:00,61.9,53.5,30.05,SE,135,2.3,2.6,74,0.00,OVC,OVC,0.00,WeatherDisplay:10.37,2013-05-03 12:05:00,
2013-05-03 08:10:00,62.4,54.0,30.05,SE,135,0.0,0.0,74,0.00,OVC,OVC,0.00,WeatherDisplay:10.37,2013-05-03 12:10:00,
2013-05-03 08:15:00,63.0,53.8,30.05,SSE,158,0.0,0.0,72,0.00,OVC,OVC,0.00,WeatherDisplay:10.37,2013-05-03 12:15:00,
2013-05-03 08:20:00,63.1,54.0,30.05,SE,135,0.0,0.0,72,0.00,OVC,OVC,0.00,WeatherDisplay:10.37,2013-05-03 12:20:00,
2013-05-03 08:25:00,63.1,54.0,30.05,SE,135,0.0,0.0,72,0.00,OVC,OVC,0.00,WeatherDisplay:10.37,2013-05-03 12:25:00,
2013-05-03 08:30:00,63.5,54.3,30.05,SE,135,0.0,0.0,72,0.00,OVC,OVC,0.00,WeatherDisplay:10.37,2013-05-03 12:30:00,
2013-05-03 08:35:00,63.7,54.5,30.05,SSE,158,1.2,0.0,72,0.00,OVC,OVC,0.00,WeatherDisplay:10.37,2013-05-03 12:35:00,
2013-05-03 08:40:00,64.2,55.0,30.05,SE,135,3.5,3.5,72,0.00,OVC,OVC,0.00,WeatherDisplay:10.37,2013-05-03 12:40:00,
2013-05-03 08:45:00,64.2,54.6,30.05,South,180,2.3,3.5,71,0.00,OVC,OVC,0.00,WeatherDisplay:10.37,2013-05-03 12:45:00,
2013-05-03 08:51:00,64.6,55.0,30.05,SSE,158,3.5,3.5,71,0.00,OVC,OVC,0.00,WeatherDisplay:10.37,2013-05-03 12:51:00,
2013-05-03 08:56:00,64.6,54.6,30.05,SSE,158,2.3,2.4,70,0.00,OVC,OVC,0.00,WeatherDisplay:10.37,2013-05-03 12:56:00,
2013-05-03 09:01:00,66.2,56.1,30.05,South,180,3.5,3.5,70,0.00,OVC,OVC,0.00,WeatherDisplay:10.37,2013-05-03 13:01:00,
2013-05-03 09:06:00,66.4,56.3,30.05,SE,135,3.5,3.8,70,0.00,OVC,OVC,0.00,WeatherDisplay:10.37,2013-05-03 13:06:00,
2013-05-03 09:11:00,66.7,55.8,30.05,ESE,112,3.5,3.5,68,0.00,OVC,OVC,0.00,WeatherDisplay:10.37,2013-05-03 13:11:00,
2013-05-03 09:16:00,66.7,55.8,30.05,SSE,158,3.5,4.2,68,0.00,OVC,OVC,0.00,WeatherDisplay:10.37,2013-05-03 13:16:00,
2013-05-03 09:21:00,66.9,56.0,30.05,South,180,3.5,3.5,68,0.00,OVC,OVC,0.00,WeatherDisplay:10.37,2013-05-03 13:21:00,
2013-05-03 09:26:00,66.9,56.0,30.05,SSE,158,4.6,4.6,68,0.00,OVC,OVC,0.00,WeatherDisplay:10.37,2013-05-03 13:26:00,
2013-05-03 09:31:00,67.8,56.9,30.04,South,180,5.8,5.8,68,0.00,OVC,OVC,0.00,WeatherDisplay:10.37,2013-05-03 13:31:00,
2013-05-03 09:36:00,67.8,56.9,30.04,SE,135,1.2,3.2,68,0.00,OVC,OVC,0.00,WeatherDisplay:10.37,2013-05-03 13:36:00,
2013-05-03 09:41:00,69.4,57.6,30.04,SSW,202,3.5,3.5,66,0.00,OVC,OVC,0.00,WeatherDisplay:10.37,2013-05-03 13:41:00,
2013-05-03 09:46:00,69.4,57.6,30.04,SE,135,3.5,3.5,66,0.00,OVC,OVC,0.00,WeatherDisplay:10.37,2013-05-03 13:46:00,
2013-05-03 09:51:00,69.4,57.6,30.04,SSE,158,2.3,2.3,66,0.00,OVC,OVC,0.00,WeatherDisplay:10.37,2013-05-03 13:51:00,
2013-05-03 09:56:00,70.0,58.1,30.04,SSE,158,2.3,2.3,66,0.00,OVC,OVC,0.00,WeatherDisplay:10.37,2013-05-03 13:56:00,
2013-05-03 10:01:00,70.0,58.1,30.04,SE,135,3.5,3.5,66,0.00,OVC,OVC,0.00,WeatherDisplay:10.37,2013-05-03 14:01:00,
2013-05-03 10:06:00,71.2,58.9,30.04,SSW,202,1.2,1.2,65,0.00,OVC,OVC,0.00,WeatherDisplay:10.37,2013-05-03 14:06:00,
2013-05-03 10:11:00,72.1,59.3,30.04,SSE,158,4.6,4.6,64,0.00,OVC,OVC,0.00,WeatherDisplay:10.37,2013-05-03 14:11:00,
2013-05-03 10:16:00,72.7,59.8,30.04,South,180,1.2,4.5,64,0.00,OVC,OVC,0.00,WeatherDisplay:10.37,2013-05-03 14:16:00,
2013-05-03 10:21:00,73.0,60.1,30.04,SSE,158,4.6,4.6,64,0.00,OVC,OVC,0.00,WeatherDisplay:10.37,2013-05-03 14:21:00,
2013-05-03 10:26:00,73.0,60.1,30.04,SSE,158,1.2,1.3,64,0.00,OVC,OVC,0.00,WeatherDisplay:10.37,2013-05-03 14:26:00,
2013-05-03 10:31:00,74.3,59.5,30.03,SSE,158,4.6,4.6,60,0.00,OVC,OVC,0.00,WeatherDisplay:10.37,2013-05-03 14:31:00,
2013-05-03 10:36:00,74.3,59.5,30.03,SSW,202,3.5,4.7,60,0.00,OVC,OVC,0.00,WeatherDisplay:10.37,2013-05-03 14:36:00,
2013-05-03 10:41:00,75.4,60.5,30.03,SSE,158,2.3,2.3,60,0.00,OVC,OVC,0.00,WeatherDisplay:10.37,2013-05-03 14:41:00,
2013-05-03 10:46:00,75.9,60.1,30.03,ESE,112,1.2,1.7,58,0.00,OVC,OVC,0.00,WeatherDisplay:10.37,2013-05-03 14:46:00,
2013-05-03 10:51:00,76.6,60.8,30.03,SSE,158,2.3,2.3,58,0.00,OVC,OVC,0.00,WeatherDisplay:10.37,2013-05-03 14:51:00,
2013-05-03 10:56:00,76.8,60.9,30.03,SE,135,0.0,4.1,58,0.00,OVC,OVC,0.00,WeatherDisplay:10.37,2013-05-03 14:56:00,
2013-05-03 11:01:00,77.5,61.6,30.03,SE,135,2.3,2.3,58,0.00,OVC,OVC,0.00,WeatherDisplay:10.37,2013-05-03 15:01:00,
2013-05-03 11:06:00,77.7,61.8,30.03,SE,135,3.5,3.6,58,0.00,OVC,OVC,0.00,WeatherDisplay:10.37,2013-05-03 15:06:00,
2013-05-03 11:11:00,78.4,62.4,30.03,SSW,202,3.5,3.5,58,0.00,OVC,OVC,0.00,WeatherDisplay:10.37,2013-05-03 15:11:00,
2013-05-03 11:16:00,78.8,62.8,30.03,SE,135,3.5,3.5,58,0.00,OVC,OVC,0.00,WeatherDisplay:10.37,2013-05-03 15:16:00,
2013-05-03 11:21:00,79.2,63.1,30.03,SE,135,5.8,5.8,58,0.00,OVC,OVC,0.00,WeatherDisplay:10.37,2013-05-03 15:21:00,
2013-05-03 11:26:00,79.2,63.1,30.03,SE,135,2.3,5.4,58,0.00,OVC,OVC,0.00,WeatherDisplay:10.37,2013-05-03 15:26:00,
2013-05-03 11:31:00,79.3,63.3,30.03,SE,135,3.5,3.5,58,0.00,OVC,OVC,0.00,WeatherDisplay:10.37,2013-05-03 15:31:00,
2013-05-03 11:36:00,79.3,60.7,30.03,SE,135,5.8,5.8,53,0.00,OVC,OVC,0.00,WeatherDisplay:10.37,2013-05-03 15:36:00,
2013-05-03 11:41:00,79.7,61.1,30.03,SE,135,4.6,4.6,53,0.00,OVC,OVC,0.00,WeatherDisplay:10.37,2013-05-03 15:41:00,
2013-05-03 11:46:00,79.7,61.1,30.03,ESE,112,1.2,2.0,53,0.00,OVC,OVC,0.00,WeatherDisplay:10.37,2013-05-03 15:46:00,
2013-05-03 11:51:00,80.8,61.0,30.03,SE,135,2.3,2.3,51,0.00,OVC,OVC,0.00,WeatherDisplay:10.37,2013-05-03 15:51:00,
2013-05-03 11:56:00,80.8,60.4,30.03,ESE,112,2.3,2.3,50,0.00,OVC,OVC,0.00,WeatherDisplay:10.37,2013-05-03 15:56:00,
2013-05-03 12:01:00,81.3,60.9,30.03,ESE,112,3.5,3.5,50,0.00,OVC,OVC,0.00,WeatherDisplay:10.37,2013-05-03 16:01:00,
2013-05-03 12:06:00,81.3,60.9,30.03,ESE,112,1.2,1.6,50,0.00,OVC,OVC,0.00,WeatherDisplay:10.37,2013-05-03 16:06:00,
2013-05-03 12:11:00,81.7,61.2,30.03,SE,135,3.5,3.5,50,0.00,OVC,OVC,0.00,WeatherDisplay:10.37,2013-05-03 16:11:00,
2013-05-03 12:16:00,81.7,61.2,30.03,ESE,112,3.5,3.5,50,0.00,OVC,OVC,0.00,WeatherDisplay:10.37,2013-05-03 16:16:00,
2013-05-03 12:21:00,81.5,61.1,30.03,ESE,112,3.5,3.8,50,0.00,OVC,OVC,0.00,WeatherDisplay:10.37,2013-05-03 16:21:00,
2013-05-03 12:26:00,81.7,61.2,30.03,ESE,112,3.5,4.3,50,0.00,OVC,OVC,0.00,WeatherDisplay:10.37,2013-05-03 16:26:00,
2013-05-03 12:31:00,81.7,60.7,30.03,ESE,112,3.5,3.5,49,0.00,OVC,OVC,0.00,WeatherDisplay:10.37,2013-05-03 16:31:00,
2013-05-03 12:36:00,81.7,60.7,30.03,East,90,3.5,3.5,49,0.00,OVC,OVC,0.00,WeatherDisplay:10.37,2013-05-03 16:36:00,
2013-05-03 12:41:00,81.7,61.2,30.03,ESE,112,2.3,2.3,50,0.00,OVC,OVC,0.00,WeatherDisplay:10.37,2013-05-03 16:41:00,
2013-05-03 12:46:00,81.7,61.2,30.03,East,90,0.0,3.6,50,0.00,OVC,OVC,0.00,WeatherDisplay:10.37,2013-05-03 16:46:00,
2013-05-03 12:51:00,80.8,60.4,30.03,East,90,2.3,2.3,50,0.00,OVC,OVC,0.00,WeatherDisplay:10.37,2013-05-03 16:51:00,
2013-05-03 12:56:00,80.4,60.1,30.03,East,90,3.5,3.5,50,0.00,OVC,OVC,0.00,WeatherDisplay:10.37,2013-05-03 16:56:00,
2013-05-03 13:01:00,80.4,60.1,30.02,SSE,158,3.5,3.5,50,0.00,OVC,OVC,0.00,WeatherDisplay:10.37,2013-05-03 17:01:00,
2013-05-03 13:06:00,80.4,60.1,30.02,ESE,112,0.0,0.0,50,0.00,OVC,OVC,0.00,WeatherDisplay:10.37,2013-05-03 17:06:00,
2013-05-03 13:11:00,80.4,60.1,30.02,ESE,112,3.5,3.5,50,0.00,OVC,OVC,0.00,WeatherDisplay:10.37,2013-05-03 17:11:00,
2013-05-03 13:16:00,80.1,59.7,30.02,ESE,112,3.5,3.5,50,0.00,OVC,OVC,0.00,WeatherDisplay:10.37,2013-05-03 17:16:00,
2013-05-03 13:21:00,79.9,59.0,30.02,SE,135,5.8,5.8,49,0.00,OVC,OVC,0.00,WeatherDisplay:10.37,2013-05-03 17:21:00,
2013-05-03 13:26:00,79.7,58.8,30.02,SE,135,3.5,3.5,49,0.00,OVC,OVC,0.00,WeatherDisplay:10.37,2013-05-03 17:26:00,
2013-05-03 13:31:00,79.0,58.8,30.02,ESE,112,4.6,4.6,50,0.00,OVC,OVC,0.00,WeatherDisplay:10.37,2013-05-03 17:31:00,
2013-05-03 13:37:00,79.0,58.8,30.02,SE,135,2.3,2.3,50,0.00,OVC,OVC,0.00,WeatherDisplay:10.37,2013-05-03 17:37:00,
2013-05-03 13:42:00,79.0,58.8,30.02,ESE,112,2.3,2.6,50,0.00,OVC,OVC,0.00,WeatherDisplay:10.37,2013-05-03 17:42:00,
2013-05-03 13:47:00,79.0,58.8,30.02,ENE,68,4.6,4.6,50,0.00,OVC,OVC,0.00,WeatherDisplay:10.37,2013-05-03 17:47:00,
2013-05-03 13:52:00,79.2,58.9,30.02,SE,135,3.5,3.5,50,0.00,OVC,OVC,0.00,WeatherDisplay:10.37,2013-05-03 17:52:00,
2013-05-03 13:57:00,79.2,58.4,30.02,East,90,3.5,3.5,49,0.00,OVC,OVC,0.00,WeatherDisplay:10.37,2013-05-03 17:57:00,
2013-05-03 14:02:00,79.2,58.4,30.02,ESE,112,2.3,4.2,49,0.00,OVC,OVC,0.00,WeatherDisplay:10.37,2013-05-03 18:02:00,
2013-05-03 14:07:00,79.0,57.0,30.01,ESE,112,4.6,4.6,47,0.00,OVC,OVC,0.00,WeatherDisplay:10.37,2013-05-03 18:07:00,
2013-05-03 14:12:00,79.0,57.0,30.01,SE,135,3.5,4.3,47,0.00,OVC,OVC,0.00,WeatherDisplay:10.37,2013-05-03 18:12:00,
2013-05-03 14:17:00,78.6,56.7,30.01,SE,135,4.6,4.6,47,0.00,OVC,OVC,0.00,WeatherDisplay:10.37,2013-05-03 18:17:00,
2013-05-03 14:22:00,78.6,56.7,30.01,East,90,1.2,4.0,47,0.00,OVC,OVC,0.00,WeatherDisplay:10.37,2013-05-03 18:22:00,
2013-05-03 14:27:00,78.6,56.7,30.01,ESE,112,4.6,4.6,47,0.00,OVC,OVC,0.00,WeatherDisplay:10.37,2013-05-03 18:27:00,
2013-05-03 14:32:00,78.6,56.7,30.01,SE,135,4.6,4.6,47,0.00,OVC,OVC,0.00,WeatherDisplay:10.37,2013-05-03 18:32:00,
2013-05-03 14:37:00,78.6,56.7,30.01,East,90,5.8,5.8,47,0.00,OVC,OVC,0.00,WeatherDisplay:10.37,2013-05-03 18:37:00,
2013-05-03 14:42:00,77.9,56.0,30.01,ESE,112,5.8,5.8,47,0.00,OVC,OVC,0.00,WeatherDisplay:10.37,2013-05-03 18:42:00,
2013-05-03 14:47:00,78.1,56.2,30.01,ESE,112,4.6,5.3,47,0.00,OVC,OVC,0.00,WeatherDisplay:10.37,2013-05-03 18:47:00,
2013-05-03 14:52:00,78.1,54.4,30.00,ESE,112,6.9,6.9,44,0.00,OVC,OVC,0.00,WeatherDisplay:10.37,2013-05-03 18:52:00,
2013-05-03 14:57:00,78.1,55.0,30.00,SE,135,6.9,6.9,45,0.00,OVC,OVC,0.00,WeatherDisplay:10.37,2013-05-03 18:57:00,
2013-05-03 15:02:00,78.1,55.0,30.00,ESE,112,5.8,6.2,45,0.00,OVC,OVC,0.00,WeatherDisplay:10.37,2013-05-03 19:02:00,
2013-05-03 15:07:00,77.9,54.8,30.00,ESE,112,4.6,4.6,45,0.00,OVC,OVC,0.00,WeatherDisplay:10.37,2013-05-03 19:07:00,
2013-05-03 15:12:00,77.7,54.1,30.00,ESE,112,6.9,6.9,44,0.00,OVC,OVC,0.00,WeatherDisplay:10.37,2013-05-03 19:12:00,
2013-05-03 15:17:00,77.4,53.7,30.00,ESE,112,5.8,5.8,44,0.00,OVC,OVC,0.00,WeatherDisplay:10.37,2013-05-03 19:17:00,
2013-05-03 15:22:00,77.4,53.7,30.00,SE,135,6.5,6.5,44,0.00,OVC,OVC,0.00,WeatherDisplay:10.37,2013-05-03 19:22:00,
2013-05-03 15:27:00,76.8,53.3,30.00,ESE,112,5.8,5.8,44,0.00,OVC,OVC,0.00,WeatherDisplay:10.37,2013-05-03 19:27:00,
2013-05-03 15:32:00,76.8,53.3,30.00,ESE,112,4.6,4.6,44,0.00,OVC,OVC,0.00,WeatherDisplay:10.37,2013-05-03 19:32:00,
2013-05-03 15:37:00,77.0,53.4,30.00,ESE,112,5.8,5.8,44,0.00,OVC,OVC,0.00,WeatherDisplay:10.37,2013-05-03 19:37:00,
2013-05-03 15:42:00,77.2,52.3,29.99,ESE,112,3.5,4.9,42,0.00,OVC,OVC,0.00,WeatherDisplay:10.37,2013-05-03 19:42:00,
2013-05-03 15:47:00,76.8,52.6,29.99,SE,135,5.8,5.8,43,0.00,OVC,OVC,0.00,WeatherDisplay:10.37,2013-05-03 19:47:00,
2013-05-03 15:52:00,76.8,52.6,29.99,ESE,112,4.6,4.6,43,0.00,OVC,OVC,0.00,WeatherDisplay:10.37,2013-05-03 19:52:00,
2013-05-03 15:57:00,76.6,52.5,29.99,ESE,112,6.9,6.9,43,0.00,OVC,OVC,0.00,WeatherDisplay:10.37,2013-05-03 19:57:00,
2013-05-03 16:02:00,76.3,51.5,29.99,East,90,4.6,5.0,42,0.00,OVC,OVC,0.00,WeatherDisplay:10.37,2013-05-03 20:02:00,
2013-05-03 16:07:00,76.3,51.5,29.99,ESE,112,6.9,6.9,42,0.00,OVC,OVC,0.00,WeatherDisplay:10.37,2013-05-03 20:07:00,
2013-05-03 16:12:00,76.1,51.3,29.99,ESE,112,4.6,4.6,42,0.00,OVC,OVC,0.00,WeatherDisplay:10.37,2013-05-03 20:12:00,
2013-05-03 16:17:00,76.1,51.3,29.99,ESE,112,5.8,5.8,42,0.00,OVC,OVC,0.00,WeatherDisplay:10.37,2013-05-03 20:17:00,
2013-05-03 16:22:00,75.9,51.2,29.99,East,90,3.5,4.0,42,0.00,OVC,OVC,0.00,WeatherDisplay:10.37,2013-05-03 20:22:00,
2013-05-03 16:27:00,75.6,50.9,29.99,ESE,112,4.6,5.3,42,0.00,OVC,OVC,0.00,WeatherDisplay:10.37,2013-05-03 20:27:00,
2013-05-03 16:32:00,75.4,50.7,29.98,ESE,112,2.3,4.3,42,0.00,OVC,OVC,0.00,WeatherDisplay:10.37,2013-05-03 20:32:00,
2013-05-03 16:37:00,75.4,50.7,29.98,East,90,3.5,3.8,42,0.00,OVC,OVC,0.00,WeatherDisplay:10.37,2013-05-03 20:37:00,
2013-05-03 16:42:00,75.6,50.2,29.98,ESE,112,4.6,4.6,41,0.00,OVC,OVC,0.00,WeatherDisplay:10.37,2013-05-03 20:42:00,
2013-05-03 16:47:00,75.7,50.4,29.98,ESE,112,5.8,5.8,41,0.00,OVC,OVC,0.00,WeatherDisplay:10.37,2013-05-03 20:47:00,
2013-05-03 16:52:00,75.6,50.2,29.98,ESE,112,4.6,4.6,41,0.00,OVC,OVC,0.00,WeatherDisplay:10.37,2013-05-03 20:52:00,
2013-05-03 16:57:00,75.4,50.0,29.98,ESE,112,4.6,4.6,41,0.00,OVC,OVC,0.00,WeatherDisplay:10.37,2013-05-03 20:57:00,
2013-05-03 17:02:00,75.4,49.4,29.98,ESE,112,5.8,5.8,40,0.00,OVC,OVC,0.00,WeatherDisplay:10.37,2013-05-03 21:02:00,
2013-05-03 17:07:00,75.4,49.4,29.97,ESE,112,4.6,4.7,40,0.00,OVC,OVC,0.00,WeatherDisplay:10.37,2013-05-03 21:07:00,
2013-05-03 17:12:00,74.5,48.6,29.97,ESE,112,4.6,4.9,40,0.00,OVC,OVC,0.00,WeatherDisplay:10.37,2013-05-03 21:12:00,
2013-05-03 17:17:00,74.1,48.9,29.97,ESE,112,4.6,4.6,41,0.00,OVC,OVC,0.00,WeatherDisplay:10.37,2013-05-03 21:17:00,
2013-05-03 17:22:00,74.1,48.9,29.97,ESE,112,3.5,3.5,41,0.00,OVC,OVC,0.00,WeatherDisplay:10.37,2013-05-03 21:22:00,
2013-05-03 17:27:00,73.9,48.7,29.98,East,90,4.6,4.6,41,0.00,OVC,OVC,0.00,WeatherDisplay:10.37,2013-05-03 21:27:00,
2013-05-03 17:32:00,73.6,48.4,29.98,ESE,112,4.6,4.6,41,0.00,OVC,OVC,0.00,WeatherDisplay:10.37,2013-05-03 21:32:00,
2013-05-03 17:37:00,73.4,48.9,29.97,ESE,112,4.6,4.6,42,0.00,OVC,OVC,0.00,WeatherDisplay:10.37,2013-05-03 21:37:00,
2013-05-03 17:42:00,73.2,49.4,29.97,ESE,112,3.5,3.5,43,0.00,OVC,OVC,0.00,WeatherDisplay:10.37,2013-05-03 21:42:00,
2013-05-03 17:47:00,73.2,49.4,29.97,ESE,112,4.6,4.9,43,0.00,OVC,OVC,0.00,WeatherDisplay:10.37,2013-05-03 21:47:00,
2013-05-03 17:52:00,73.0,49.2,29.97,ESE,112,5.8,5.8,43,0.00,OVC,OVC,0.00,WeatherDisplay:10.37,2013-05-03 21:52:00,
2013-05-03 17:57:00,73.0,49.2,29.97,ESE,112,2.3,2.3,43,0.00,OVC,OVC,0.00,WeatherDisplay:10.37,2013-05-03 21:57:00,
2013-05-03 18:02:00,72.5,49.3,29.97,ESE,112,3.5,3.5,44,0.00,OVC,OVC,0.00,WeatherDisplay:10.37,2013-05-03 22:02:00,
2013-05-03 18:07:00,72.1,49.0,29.97,ENE,68,3.5,3.9,44,0.00,OVC,OVC,0.00,WeatherDisplay:10.37,2013-05-03 22:07:00,
2013-05-03 18:12:00,72.1,49.0,29.97,ESE,112,1.2,4.5,44,0.00,OVC,OVC,0.00,WeatherDisplay:10.37,2013-05-03 22:12:00,
2013-05-03 18:17:00,72.0,48.2,29.97,ESE,112,4.6,4.6,43,0.00,OVC,OVC,0.00,WeatherDisplay:10.37,2013-05-03 22:17:00,
2013-05-03 18:22:00,72.0,48.2,29.97,ESE,112,3.5,4.4,43,0.00,OVC,OVC,0.00,WeatherDisplay:10.37,2013-05-03 22:22:00,
2013-05-03 18:27:00,71.4,47.7,29.97,ESE,112,4.6,4.6,43,0.00,OVC,OVC,0.00,WeatherDisplay:10.37,2013-05-03 22:27:00,
2013-05-03 18:32:00,71.4,47.7,29.97,ESE,112,3.5,4.9,43,0.00,OVC,OVC,0.00,WeatherDisplay:10.37,2013-05-03 22:32:00,
2013-05-03 18:37:00,73.0,49.2,29.97,ESE,112,3.5,3.8,43,0.00,OVC,OVC,0.00,WeatherDisplay:10.37,2013-05-03 22:37:00,
2013-05-03 18:42:00,74.8,50.8,29.97,ESE,112,4.6,4.6,43,0.00,OVC,OVC,0.00,WeatherDisplay:10.37,2013-05-03 22:42:00,
2013-05-03 18:47:00,74.8,48.9,29.98,ESE,112,3.5,3.8,40,0.00,OVC,OVC,0.00,WeatherDisplay:10.37,2013-05-03 22:47:00,
2013-05-03 18:52:00,73.8,47.9,29.98,SE,135,3.5,3.5,40,0.00,OVC,OVC,0.00,WeatherDisplay:10.37,2013-05-03 22:52:00,
2013-05-03 18:57:00,73.8,47.9,29.98,ESE,112,3.5,3.5,40,0.00,OVC,OVC,0.00,WeatherDisplay:10.37,2013-05-03 22:57:00,
2013-05-03 19:02:00,70.7,45.2,29.98,ESE,112,2.3,2.3,40,0.00,OVC,OVC,0.00,WeatherDisplay:10.37,2013-05-03 23:02:00,
2013-05-03 19:07:00,70.7,45.2,29.98,ESE,112,3.5,3.5,40,0.00,OVC,OVC,0.00,WeatherDisplay:10.37,2013-05-03 23:07:00,
2013-05-03 19:12:00,68.5,43.2,29.98,ESE,112,2.3,3.4,40,0.00,OVC,OVC,0.00,WeatherDisplay:10.37,2013-05-03 23:12:00,
2013-05-03 19:17:00,68.5,43.2,29.98,SE,135,3.5,3.6,40,0.00,OVC,OVC,0.00,WeatherDisplay:10.37,2013-05-03 23:17:00,
2013-05-03 19:22:00,67.6,47.2,29.98,ESE,112,3.5,3.5,48,0.00,OVC,OVC,0.00,WeatherDisplay:10.37,2013-05-03 23:22:00,
2013-05-03 19:27:00,66.9,46.6,29.98,SE,135,2.3,2.6,48,0.00,OVC,OVC,0.00,WeatherDisplay:10.37,2013-05-03 23:27:00,
2013-05-03 19:32:00,66.6,46.3,29.98,SE,135,2.3,2.3,48,0.00,OVC,OVC,0.00,WeatherDisplay:10.37,2013-05-03 23:32:00,
2013-05-03 19:37:00,66.6,46.3,29.98,ESE,112,3.5,3.5,48,0.00,OVC,OVC,0.00,WeatherDisplay:10.37,2013-05-03 23:37:00,
2013-05-03 19:42:00,66.0,45.8,29.98,ESE,112,0.0,2.7,48,0.00,OVC,OVC,0.00,WeatherDisplay:10.37,2013-05-03 23:42:00,
2013-05-03 19:47:00,66.0,45.8,29.98,ESE,112,3.5,3.5,48,0.00,OVC,OVC,0.00,WeatherDisplay:10.37,2013-05-03 23:47:00,
2013-05-03 19:52:00,64.9,47.4,29.98,ESE,112,2.3,2.3,53,0.00,OVC,OVC,0.00,WeatherDisplay:10.37,2013-05-03 23:52:00,
2013-05-03 19:57:00,64.2,46.7,29.98,ESE,112,3.5,3.5,53,0.00,OVC,OVC,0.00,WeatherDisplay:10.37,2013-05-03 23:57:00,
2013-05-03 20:02:00,64.2,46.7,29.98,ESE,112,2.3,2.3,53,0.00,OVC,OVC,0.00,WeatherDisplay:10.37,2013-05-04 00:02:00,
2013-05-03 20:07:00,63.7,46.2,29.98,ESE,112,1.2,1.2,53,0.00,OVC,OVC,0.00,WeatherDisplay:10.37,2013-05-04 00:07:00,
2013-05-03 20:12:00,63.0,45.6,29.98,ESE,112,1.2,1.8,53,0.00,OVC,OVC,0.00,WeatherDisplay:10.37,2013-05-04 00:12:00,
2013-05-03 20:17:00,62.4,45.1,29.98,ESE,112,2.3,2.3,53,0.00,OVC,OVC,0.00,WeatherDisplay:10.37,2013-05-04 00:17:00,
2013-05-03 20:22:00,62.1,47.6,29.98,ESE,112,0.0,1.5,59,0.00,OVC,OVC,0.00,WeatherDisplay:10.37,2013-05-04 00:22:00,
2013-05-03 20:27:00,61.5,47.1,29.98,ESE,112,2.3,2.4,59,0.00,OVC,OVC,0.00,WeatherDisplay:10.37,2013-05-04 00:27:00,
2013-05-03 20:32:00,61.3,47.3,29.98,ESE,112,1.2,0.0,60,0.00,OVC,OVC,0.00,WeatherDisplay:10.37,2013-05-04 00:32:00,
2013-05-03 20:37:00,60.4,46.5,29.98,ESE,112,2.3,2.3,60,0.00,OVC,OVC,0.00,WeatherDisplay:10.37,2013-05-04 00:37:00,
2013-05-03 20:42:00,60.4,46.5,29.98,ESE,112,1.2,0.0,60,0.00,OVC,OVC,0.00,WeatherDisplay:10.37,2013-05-04 00:42:00,
2013-05-03 20:47:00,59.5,45.6,29.98,ESE,112,0.0,0.0,60,0.00,OVC,OVC,0.00,WeatherDisplay:10.37,2013-05-04 00:47:00,
2013-05-03 20:52:00,59.4,45.5,29.98,ESE,112,0.0,0.0,60,0.00,OVC,OVC,0.00,WeatherDisplay:10.37,2013-05-04 00:52:00,
2013-05-03 20:57:00,59.0,46.8,29.98,ESE,112,0.0,0.0,64,0.00,OVC,OVC,0.00,WeatherDisplay:10.37,2013-05-04 00:57:00,
2013-05-03 21:02:00,59.0,46.8,29.98,ESE,112,0.0,0.0,64,0.00,OVC,OVC,0.00,WeatherDisplay:10.37,2013-05-04 01:02:00,
2013-05-03 21:07:00,59.0,46.8,29.98,ESE,112,0.0,0.0,64,0.00,OVC,OVC,0.00,WeatherDisplay:10.37,2013-05-04 01:07:00,
2013-05-03 21:12:00,58.1,47.2,29.98,SE,135,0.0,0.0,67,0.00,OVC,OVC,0.00,WeatherDisplay:10.37,2013-05-04 01:12:00,
2013-05-03 21:17:00,57.9,47.0,29.99,ENE,68,0.0,0.0,67,0.00,OVC,OVC,0.00,WeatherDisplay:10.37,2013-05-04 01:17:00,
2013-05-03 21:22:00,57.6,46.7,29.99,East,90,0.0,0.0,67,0.00,OVC,OVC,0.00,WeatherDisplay:10.37,2013-05-04 01:22:00,
2013-05-03 21:27:00,57.4,46.9,29.99,ESE,112,0.0,0.0,68,0.00,OVC,OVC,0.00,WeatherDisplay:10.37,2013-05-04 01:27:00,
2013-05-03 21:32:00,57.0,46.6,29.99,ESE,112,0.0,0.0,68,0.00,OVC,OVC,0.00,WeatherDisplay:10.37,2013-05-04 01:32:00,
2013-05-03 21:37:00,57.0,46.6,29.99,ESE,112,0.0,0.0,68,0.00,OVC,OVC,0.00,WeatherDisplay:10.37,2013-05-04 01:37:00,
2013-05-03 21:42:00,56.8,46.4,29.99,ESE,112,0.0,0.0,68,0.00,OVC,OVC,0.00,WeatherDisplay:10.37,2013-05-04 01:42:00,
2013-05-03 21:47:00,56.5,46.4,29.99,ESE,112,0.0,0.0,69,0.00,OVC,OVC,0.00,WeatherDisplay:10.37,2013-05-04 01:47:00,
2013-05-03 21:53:00,56.5,46.4,29.99,East,90,0.0,0.0,69,0.00,OVC,OVC,0.00,WeatherDisplay:10.37,2013-05-04 01:53:00,
2013-05-03 21:58:00,56.1,46.8,29.99,ENE,68,0.0,0.0,71,0.00,OVC,OVC,0.00,WeatherDisplay:10.37,2013-05-04 01:58:00,
2013-05-03 22:03:00,55.9,46.7,29.99,ENE,68,0.0,0.0,71,0.00,OVC,OVC,0.00,WeatherDisplay:10.37,2013-05-04 02:03:00,
2013-05-03 22:08:00,55.8,46.5,29.99,ENE,68,0.0,0.0,71,0.00,OVC,OVC,0.00,WeatherDisplay:10.37,2013-05-04 02:08:00,
2013-05-03 22:13:00,55.4,45.8,29.99,ENE,68,0.0,0.0,70,0.00,OVC,OVC,0.00,WeatherDisplay:10.37,2013-05-04 02:13:00,
2013-05-03 22:18:00,55.2,45.6,29.99,ENE,68,0.0,0.0,70,0.00,OVC,OVC,0.00,WeatherDisplay:10.37,2013-05-04 02:18:00,
2013-05-03 22:23:00,55.2,45.6,29.99,East,90,0.0,0.0,70,0.00,OVC,OVC,0.00,WeatherDisplay:10.37,2013-05-04 02:23:00,
2013-05-03 22:28:00,55.0,46.5,29.99,ESE,112,0.0,0.0,73,0.00,OVC,OVC,0.00,WeatherDisplay:10.37,2013-05-04 02:28:00,
2013-05-03 22:33:00,55.0,46.5,29.99,ENE,68,0.0,0.0,73,0.00,OVC,OVC,0.00,WeatherDisplay:10.37,2013-05-04 02:33:00,
2013-05-03 22:38:00,55.0,46.5,29.99,ESE,112,0.0,0.0,73,0.00,OVC,OVC,0.00,WeatherDisplay:10.37,2013-05-04 02:38:00,
2013-05-03 22:43:00,55.0,46.5,29.99,ESE,112,0.0,0.0,73,0.00,OVC,OVC,0.00,WeatherDisplay:10.37,2013-05-04 02:43:00,
2013-05-03 22:48:00,55.2,46.7,29.99,ESE,112,0.0,0.0,73,0.00,OVC,OVC,0.00,WeatherDisplay:10.37,2013-05-04 02:48:00,
2013-05-03 22:53:00,55.2,46.7,29.99,ESE,112,0.0,0.0,73,0.00,OVC,OVC,0.00,WeatherDisplay:10.37,2013-05-04 02:53:00,
2013-05-03 22:58:00,55.0,47.6,29.99,ENE,68,0.0,0.0,76,0.00,OVC,OVC,0.00,WeatherDisplay:10.37,2013-05-04 02:58:00,
2013-05-03 23:03:00,54.7,46.9,29.99,NE,45,0.0,0.0,75,0.00,OVC,OVC,0.00,WeatherDisplay:10.37,2013-05-04 03:03:00,
2013-05-03 23:08:00,54.5,46.7,29.99,ENE,68,0.0,0.0,75,0.00,OVC,OVC,0.00,WeatherDisplay:10.37,2013-05-04 03:08:00,
2013-05-03 23:13:00,54.5,46.7,29.99,ESE,112,0.0,0.0,75,0.00,OVC,OVC,0.00,WeatherDisplay:10.37,2013-05-04 03:13:00,
2013-05-03 23:18:00,54.5,46.7,29.99,ESE,112,0.0,0.0,75,0.00,OVC,OVC,0.00,WeatherDisplay:10.37,2013-05-04 03:18:00,
2013-05-03 23:23:00,54.7,46.9,29.99,ESE,112,0.0,0.0,75,0.00,OVC,OVC,0.00,WeatherDisplay:10.37,2013-05-04 03:23:00,
2013-05-03 23:28:00,54.7,46.9,29.99,ESE,112,0.0,0.0,75,0.00,OVC,OVC,0.00,WeatherDisplay:10.37,2013-05-04 03:28:00,
2013-05-03 23:33:00,54.7,46.9,29.99,ESE,112,0.0,0.0,75,0.00,OVC,OVC,0.00,WeatherDisplay:10.37,2013-05-04 03:33:00,
2013-05-03 23:38:00,55.2,48.1,29.99,ESE,112,0.0,0.0,77,0.00,OVC,OVC,0.00,WeatherDisplay:10.37,2013-05-04 03:38:00,
2013-05-03 23:43:00,55.2,48.1,29.99,ESE,112,0.0,0.0,77,0.00,OVC,OVC,0.00,WeatherDisplay:10.37,2013-05-04 03:43:00,
2013-05-03 23:48:00,55.2,48.5,29.99,ESE,112,0.0,0.0,78,0.00,OVC,OVC,0.00,WeatherDisplay:10.37,2013-05-04 03:48:00,
2013-05-03 23:53:00,55.4,48.7,29.99,ESE,112,0.0,0.0,78,0.00,OVC,OVC,0.00,WeatherDisplay:10.37,2013-05-04 03:53:00,
2013-05-03 23:58:00,55.8,49.0,29.99,ESE,112,2.3,2.3,78,0.00,OVC,OVC,0.00,WeatherDisplay:10.37,2013-05-04 03:58:00,